sensor_id;sensor_type;location;lat;lon;timestamp;P1;durP1;ratioP1;P2;durP2;ratioP2
5880;SDS011;2966;52.598;10.928;2023-02-03T00:00:03;1.17;;;1.10;;
5880;SDS011;2966;52.598;10.928;2023-02-03T00:02:31;1.50;;;1.00;;
5880;SDS011;2966;52.598;10.928;2023-02-03T00:04:58;0.73;;;0.73;;
5880;SDS011;2966;52.598;10.928;2023-02-03T00:07:26;0.53;;;0.53;;
5880;SDS011;2966;52.598;10.928;2023-02-03T00:09:53;0.80;;;0.80;;
5880;SDS011;2966;52.598;10.928;2023-02-03T00:12:20;0.40;;;0.40;;
5880;SDS011;2966;52.598;10.928;2023-02-03T00:14:47;0.90;;;0.90;;
5880;SDS011;2966;52.598;10.928;2023-02-03T00:17:14;1.50;;;1.40;;
5880;SDS011;2966;52.598;10.928;2023-02-03T00:19:41;0.90;;;0.90;;
5880;SDS011;2966;52.598;10.928;2023-02-03T00:22:07;3.30;;;1.23;;
5880;SDS011;2966;52.598;10.928;2023-02-03T00:24:37;0.30;;;0.30;;
5880;SDS011;2966;52.598;10.928;2023-02-03T00:27:03;0.77;;;0.47;;
5880;SDS011;2966;52.598;10.928;2023-02-03T00:29:31;2.00;;;1.90;;
5880;SDS011;2966;52.598;10.928;2023-02-03T00:31:57;1.10;;;1.00;;
5880;SDS011;2966;52.598;10.928;2023-02-03T00:34:26;2.50;;;2.10;;
5880;SDS011;2966;52.598;10.928;2023-02-03T00:36:54;3.57;;;3.00;;
5880;SDS011;2966;52.598;10.928;2023-02-03T00:39:21;3.63;;;1.13;;
5880;SDS011;2966;52.598;10.928;2023-02-03T00:41:49;1.47;;;1.37;;
5880;SDS011;2966;52.598;10.928;2023-02-03T00:44:16;0.90;;;0.90;;
5880;SDS011;2966;52.598;10.928;2023-02-03T00:46:43;1.53;;;1.50;;
5880;SDS011;2966;52.598;10.928;2023-02-03T00:49:09;2.10;;;2.00;;
5880;SDS011;2966;52.598;10.928;2023-02-03T00:51:36;1.47;;;1.37;;
5880;SDS011;2966;52.598;10.928;2023-02-03T00:54:03;3.90;;;2.13;;
5880;SDS011;2966;52.598;10.928;2023-02-03T00:56:29;2.20;;;1.77;;
5880;SDS011;2966;52.598;10.928;2023-02-03T00:58:57;2.90;;;2.80;;
5880;SDS011;2966;52.598;10.928;2023-02-03T01:01:24;2.40;;;2.20;;
5880;SDS011;2966;52.598;10.928;2023-02-03T01:03:52;1.17;;;0.90;;
5880;SDS011;2966;52.598;10.928;2023-02-03T01:06:20;8.97;;;7.10;;
5880;SDS011;2966;52.598;10.928;2023-02-03T01:08:47;3.33;;;1.80;;
5880;SDS011;2966;52.598;10.928;2023-02-03T01:11:15;3.40;;;3.20;;
5880;SDS011;2966;52.598;10.928;2023-02-03T01:13:43;2.10;;;1.53;;
5880;SDS011;2966;52.598;10.928;2023-02-03T01:16:15;9.13;;;5.57;;
5880;SDS011;2966;52.598;10.928;2023-02-03T01:18:44;4.37;;;3.80;;
5880;SDS011;2966;52.598;10.928;2023-02-03T01:21:13;2.80;;;1.97;;
5880;SDS011;2966;52.598;10.928;2023-02-03T01:23:42;5.17;;;4.67;;
5880;SDS011;2966;52.598;10.928;2023-02-03T01:26:09;1.20;;;1.20;;
5880;SDS011;2966;52.598;10.928;2023-02-03T01:28:38;3.20;;;3.03;;
5880;SDS011;2966;52.598;10.928;2023-02-03T01:31:08;8.53;;;6.77;;
5880;SDS011;2966;52.598;10.928;2023-02-03T01:33:37;5.63;;;3.30;;
5880;SDS011;2966;52.598;10.928;2023-02-03T01:36:05;3.53;;;3.23;;
5880;SDS011;2966;52.598;10.928;2023-02-03T01:38:32;3.07;;;2.80;;
5880;SDS011;2966;52.598;10.928;2023-02-03T01:41:00;6.87;;;6.23;;
5880;SDS011;2966;52.598;10.928;2023-02-03T01:43:30;3.63;;;3.20;;
5880;SDS011;2966;52.598;10.928;2023-02-03T01:45:58;4.63;;;4.20;;
5880;SDS011;2966;52.598;10.928;2023-02-03T01:48:28;4.83;;;4.20;;
5880;SDS011;2966;52.598;10.928;2023-02-03T01:50:57;3.37;;;3.07;;
5880;SDS011;2966;52.598;10.928;2023-02-03T01:53:27;7.07;;;3.10;;
5880;SDS011;2966;52.598;10.928;2023-02-03T01:55:53;8.47;;;5.87;;
5880;SDS011;2966;52.598;10.928;2023-02-03T01:58:22;6.47;;;3.83;;
5880;SDS011;2966;52.598;10.928;2023-02-03T02:00:53;4.40;;;3.70;;
5880;SDS011;2966;52.598;10.928;2023-02-03T02:03:22;9.33;;;6.50;;
5880;SDS011;2966;52.598;10.928;2023-02-03T02:05:53;6.37;;;5.20;;
5880;SDS011;2966;52.598;10.928;2023-02-03T02:08:27;20.97;;;7.20;;
5880;SDS011;2966;52.598;10.928;2023-02-03T02:10:56;6.33;;;5.43;;
5880;SDS011;2966;52.598;10.928;2023-02-03T02:13:23;11.23;;;5.90;;
5880;SDS011;2966;52.598;10.928;2023-02-03T02:15:53;6.67;;;5.40;;
5880;SDS011;2966;52.598;10.928;2023-02-03T02:18:32;15.37;;;9.87;;
5880;SDS011;2966;52.598;10.928;2023-02-03T02:27:40;15.10;;;10.27;;
5880;SDS011;2966;52.598;10.928;2023-02-03T02:30:49;10.00;;;8.33;;
5880;SDS011;2966;52.598;10.928;2023-02-03T02:33:35;14.30;;;5.30;;
5880;SDS011;2966;52.598;10.928;2023-02-03T02:36:13;11.00;;;7.80;;
5880;SDS011;2966;52.598;10.928;2023-02-03T02:38:50;13.77;;;9.20;;
5880;SDS011;2966;52.598;10.928;2023-02-03T02:41:23;8.33;;;6.40;;
5880;SDS011;2966;52.598;10.928;2023-02-03T02:43:56;8.40;;;7.60;;
5880;SDS011;2966;52.598;10.928;2023-02-03T02:46:30;6.03;;;5.40;;
5880;SDS011;2966;52.598;10.928;2023-02-03T02:49:01;4.50;;;4.20;;
5880;SDS011;2966;52.598;10.928;2023-02-03T02:51:32;7.23;;;5.10;;
5880;SDS011;2966;52.598;10.928;2023-02-03T02:54:01;10.40;;;6.07;;
5880;SDS011;2966;52.598;10.928;2023-02-03T02:56:31;7.80;;;7.17;;
5880;SDS011;2966;52.598;10.928;2023-02-03T02:59:01;8.53;;;5.10;;
5880;SDS011;2966;52.598;10.928;2023-02-03T03:01:29;9.23;;;5.03;;
5880;SDS011;2966;52.598;10.928;2023-02-03T03:03:56;6.33;;;5.80;;
5880;SDS011;2966;52.598;10.928;2023-02-03T03:06:29;3.53;;;3.23;;
5880;SDS011;2966;52.598;10.928;2023-02-03T03:09:00;4.90;;;4.43;;
5880;SDS011;2966;52.598;10.928;2023-02-03T03:11:31;15.47;;;8.27;;
5880;SDS011;2966;52.598;10.928;2023-02-03T03:14:01;14.53;;;5.90;;
5880;SDS011;2966;52.598;10.928;2023-02-03T03:16:32;16.50;;;7.60;;
5880;SDS011;2966;52.598;10.928;2023-02-03T03:19:03;10.57;;;9.53;;
5880;SDS011;2966;52.598;10.928;2023-02-03T03:21:36;7.93;;;6.67;;
5880;SDS011;2966;52.598;10.928;2023-02-03T03:24:11;7.53;;;6.70;;
5880;SDS011;2966;52.598;10.928;2023-02-03T03:26:44;2.73;;;2.53;;
5880;SDS011;2966;52.598;10.928;2023-02-03T03:29:17;14.83;;;9.50;;
5880;SDS011;2966;52.598;10.928;2023-02-03T03:31:47;8.43;;;5.17;;
5880;SDS011;2966;52.598;10.928;2023-02-03T03:34:14;6.63;;;5.57;;
5880;SDS011;2966;52.598;10.928;2023-02-03T03:36:43;7.30;;;5.33;;
5880;SDS011;2966;52.598;10.928;2023-02-03T03:39:14;4.83;;;4.27;;
5880;SDS011;2966;52.598;10.928;2023-02-03T03:41:49;6.00;;;4.37;;
5880;SDS011;2966;52.598;10.928;2023-02-03T03:44:24;7.53;;;4.67;;
5880;SDS011;2966;52.598;10.928;2023-02-03T03:46:55;5.70;;;5.20;;
5880;SDS011;2966;52.598;10.928;2023-02-03T03:49:30;5.27;;;4.57;;
5880;SDS011;2966;52.598;10.928;2023-02-03T03:52:01;3.03;;;2.73;;
5880;SDS011;2966;52.598;10.928;2023-02-03T03:54:31;2.03;;;1.63;;
5880;SDS011;2966;52.598;10.928;2023-02-03T03:57:00;11.87;;;5.97;;
5880;SDS011;2966;52.598;10.928;2023-02-03T03:59:32;6.77;;;5.03;;
5880;SDS011;2966;52.598;10.928;2023-02-03T04:02:01;6.10;;;5.67;;
5880;SDS011;2966;52.598;10.928;2023-02-03T04:04:29;4.93;;;4.53;;
5880;SDS011;2966;52.598;10.928;2023-02-03T04:06:58;9.83;;;6.00;;
5880;SDS011;2966;52.598;10.928;2023-02-03T04:09:26;14.40;;;4.50;;
5880;SDS011;2966;52.598;10.928;2023-02-03T04:11:52;6.70;;;6.10;;
5880;SDS011;2966;52.598;10.928;2023-02-03T04:14:30;5.30;;;4.80;;
5880;SDS011;2966;52.598;10.928;2023-02-03T04:16:58;5.80;;;5.23;;
5880;SDS011;2966;52.598;10.928;2023-02-03T04:19:25;2.37;;;2.17;;
5880;SDS011;2966;52.598;10.928;2023-02-03T04:21:52;8.60;;;6.40;;
5880;SDS011;2966;52.598;10.928;2023-02-03T04:24:19;4.30;;;2.50;;
5880;SDS011;2966;52.598;10.928;2023-02-03T04:26:47;6.27;;;4.73;;
5880;SDS011;2966;52.598;10.928;2023-02-03T04:29:14;3.83;;;3.53;;
5880;SDS011;2966;52.598;10.928;2023-02-03T04:31:40;9.23;;;2.30;;
5880;SDS011;2966;52.598;10.928;2023-02-03T04:34:07;5.90;;;3.00;;
5880;SDS011;2966;52.598;10.928;2023-02-03T04:36:34;4.70;;;4.23;;
5880;SDS011;2966;52.598;10.928;2023-02-03T04:39:00;6.33;;;5.67;;
5880;SDS011;2966;52.598;10.928;2023-02-03T04:41:27;8.27;;;6.43;;
5880;SDS011;2966;52.598;10.928;2023-02-03T04:43:55;8.37;;;5.57;;
5880;SDS011;2966;52.598;10.928;2023-02-03T04:46:21;6.13;;;5.63;;
5880;SDS011;2966;52.598;10.928;2023-02-03T04:48:48;7.80;;;6.63;;
5880;SDS011;2966;52.598;10.928;2023-02-03T04:51:15;5.57;;;4.33;;
5880;SDS011;2966;52.598;10.928;2023-02-03T04:53:41;9.47;;;5.80;;
5880;SDS011;2966;52.598;10.928;2023-02-03T04:56:08;8.23;;;4.50;;
5880;SDS011;2966;52.598;10.928;2023-02-03T04:58:41;3.53;;;3.30;;
5880;SDS011;2966;52.598;10.928;2023-02-03T05:01:12;8.47;;;6.93;;
5880;SDS011;2966;52.598;10.928;2023-02-03T05:03:39;8.10;;;3.33;;
5880;SDS011;2966;52.598;10.928;2023-02-03T05:06:05;3.60;;;3.40;;
5880;SDS011;2966;52.598;10.928;2023-02-03T05:08:32;2.93;;;2.73;;
5880;SDS011;2966;52.598;10.928;2023-02-03T05:11:02;6.13;;;2.20;;
5880;SDS011;2966;52.598;10.928;2023-02-03T05:13:31;7.20;;;4.17;;
5880;SDS011;2966;52.598;10.928;2023-02-03T05:15:57;6.50;;;5.17;;
5880;SDS011;2966;52.598;10.928;2023-02-03T05:18:27;4.30;;;2.93;;
5880;SDS011;2966;52.598;10.928;2023-02-03T05:20:53;5.40;;;4.90;;
5880;SDS011;2966;52.598;10.928;2023-02-03T05:23:20;4.63;;;3.47;;
5880;SDS011;2966;52.598;10.928;2023-02-03T05:25:47;5.17;;;3.83;;
5880;SDS011;2966;52.598;10.928;2023-02-03T05:28:17;2.40;;;2.20;;
5880;SDS011;2966;52.598;10.928;2023-02-03T05:30:43;0.90;;;0.83;;
5880;SDS011;2966;52.598;10.928;2023-02-03T05:33:13;6.03;;;3.80;;
5880;SDS011;2966;52.598;10.928;2023-02-03T05:35:41;4.20;;;3.33;;
5880;SDS011;2966;52.598;10.928;2023-02-03T05:38:08;6.33;;;3.63;;
5880;SDS011;2966;52.598;10.928;2023-02-03T05:40:35;4.27;;;3.90;;
5880;SDS011;2966;52.598;10.928;2023-02-03T05:43:19;1.97;;;1.83;;
5880;SDS011;2966;52.598;10.928;2023-02-03T05:45:47;2.27;;;2.17;;
5880;SDS011;2966;52.598;10.928;2023-02-03T05:48:15;1.20;;;0.90;;
5880;SDS011;2966;52.598;10.928;2023-02-03T05:50:43;4.93;;;4.47;;
5880;SDS011;2966;52.598;10.928;2023-02-03T05:53:10;3.57;;;1.90;;
5880;SDS011;2966;52.598;10.928;2023-02-03T05:55:37;11.67;;;3.93;;
5880;SDS011;2966;52.598;10.928;2023-02-03T05:58:04;4.27;;;2.70;;
5880;SDS011;2966;52.598;10.928;2023-02-03T06:00:30;6.80;;;4.57;;
5880;SDS011;2966;52.598;10.928;2023-02-03T06:02:58;4.13;;;2.67;;
5880;SDS011;2966;52.598;10.928;2023-02-03T06:05:27;3.70;;;3.40;;
5880;SDS011;2966;52.598;10.928;2023-02-03T06:07:57;18.13;;;4.50;;
5880;SDS011;2966;52.598;10.928;2023-02-03T06:10:24;7.53;;;6.27;;
5880;SDS011;2966;52.598;10.928;2023-02-03T06:12:51;4.53;;;2.10;;
5880;SDS011;2966;52.598;10.928;2023-02-03T06:15:18;2.67;;;2.13;;
5880;SDS011;2966;52.598;10.928;2023-02-03T06:17:45;5.60;;;4.43;;
5880;SDS011;2966;52.598;10.928;2023-02-03T06:20:14;6.87;;;4.80;;
5880;SDS011;2966;52.598;10.928;2023-02-03T06:22:42;5.40;;;4.10;;
5880;SDS011;2966;52.598;10.928;2023-02-03T06:25:10;4.87;;;2.30;;
5880;SDS011;2966;52.598;10.928;2023-02-03T06:27:38;3.47;;;3.17;;
5880;SDS011;2966;52.598;10.928;2023-02-03T06:30:05;6.53;;;4.77;;
5880;SDS011;2966;52.598;10.928;2023-02-03T06:32:32;8.90;;;2.00;;
5880;SDS011;2966;52.598;10.928;2023-02-03T06:34:59;2.90;;;2.67;;
5880;SDS011;2966;52.598;10.928;2023-02-03T06:37:26;2.63;;;2.00;;
5880;SDS011;2966;52.598;10.928;2023-02-03T06:39:52;5.13;;;4.30;;
5880;SDS011;2966;52.598;10.928;2023-02-03T06:42:20;7.63;;;6.23;;
5880;SDS011;2966;52.598;10.928;2023-02-03T06:44:47;6.00;;;3.87;;
5880;SDS011;2966;52.598;10.928;2023-02-03T06:47:14;2.53;;;1.93;;
5880;SDS011;2966;52.598;10.928;2023-02-03T06:49:40;4.37;;;3.97;;
5880;SDS011;2966;52.598;10.928;2023-02-03T06:52:07;7.43;;;6.70;;
5880;SDS011;2966;52.598;10.928;2023-02-03T06:54:34;4.43;;;3.47;;
5880;SDS011;2966;52.598;10.928;2023-02-03T06:57:00;3.40;;;3.10;;
5880;SDS011;2966;52.598;10.928;2023-02-03T06:59:29;3.33;;;3.03;;
5880;SDS011;2966;52.598;10.928;2023-02-03T07:01:56;10.90;;;4.27;;
5880;SDS011;2966;52.598;10.928;2023-02-03T07:04:22;2.10;;;2.00;;
5880;SDS011;2966;52.598;10.928;2023-02-03T07:06:52;7.90;;;4.87;;
5880;SDS011;2966;52.598;10.928;2023-02-03T07:09:19;3.20;;;2.77;;
5880;SDS011;2966;52.598;10.928;2023-02-03T07:11:45;6.07;;;5.10;;
5880;SDS011;2966;52.598;10.928;2023-02-03T07:14:12;4.13;;;3.57;;
5880;SDS011;2966;52.598;10.928;2023-02-03T07:16:40;15.80;;;5.40;;
5880;SDS011;2966;52.598;10.928;2023-02-03T07:19:07;2.30;;;2.10;;
5880;SDS011;2966;52.598;10.928;2023-02-03T07:21:33;4.33;;;3.93;;
5880;SDS011;2966;52.598;10.928;2023-02-03T07:24:00;11.53;;;5.30;;
5880;SDS011;2966;52.598;10.928;2023-02-03T07:26:27;4.70;;;3.67;;
5880;SDS011;2966;52.598;10.928;2023-02-03T07:28:54;3.90;;;3.27;;
5880;SDS011;2966;52.598;10.928;2023-02-03T07:31:24;6.37;;;3.57;;
5880;SDS011;2966;52.598;10.928;2023-02-03T07:33:52;4.80;;;4.40;;
5880;SDS011;2966;52.598;10.928;2023-02-03T07:36:19;1.73;;;1.63;;
5880;SDS011;2966;52.598;10.928;2023-02-03T07:38:50;10.77;;;2.70;;
5880;SDS011;2966;52.598;10.928;2023-02-03T07:41:17;3.87;;;3.57;;
5880;SDS011;2966;52.598;10.928;2023-02-03T07:43:45;3.87;;;2.80;;
5880;SDS011;2966;52.598;10.928;2023-02-03T07:46:12;6.10;;;3.50;;
5880;SDS011;2966;52.598;10.928;2023-02-03T07:48:41;2.03;;;1.83;;
5880;SDS011;2966;52.598;10.928;2023-02-03T07:51:09;2.10;;;1.10;;
5880;SDS011;2966;52.598;10.928;2023-02-03T07:53:36;3.73;;;3.40;;
5880;SDS011;2966;52.598;10.928;2023-02-03T07:56:05;3.90;;;2.80;;
5880;SDS011;2966;52.598;10.928;2023-02-03T07:58:32;2.70;;;2.20;;
5880;SDS011;2966;52.598;10.928;2023-02-03T08:01:08;15.67;;;4.07;;
5880;SDS011;2966;52.598;10.928;2023-02-03T08:03:35;2.60;;;2.40;;
5880;SDS011;2966;52.598;10.928;2023-02-03T08:06:02;2.70;;;2.20;;
5880;SDS011;2966;52.598;10.928;2023-02-03T08:08:31;2.90;;;2.60;;
5880;SDS011;2966;52.598;10.928;2023-02-03T08:10:58;3.73;;;2.13;;
5880;SDS011;2966;52.598;10.928;2023-02-03T08:13:24;3.60;;;3.40;;
5880;SDS011;2966;52.598;10.928;2023-02-03T08:15:54;4.37;;;2.37;;
5880;SDS011;2966;52.598;10.928;2023-02-03T08:18:23;3.27;;;2.90;;
5880;SDS011;2966;52.598;10.928;2023-02-03T08:20:51;3.03;;;2.73;;
5880;SDS011;2966;52.598;10.928;2023-02-03T08:23:19;6.30;;;2.67;;
5880;SDS011;2966;52.598;10.928;2023-02-03T08:25:50;3.80;;;3.10;;
5880;SDS011;2966;52.598;10.928;2023-02-03T08:28:18;4.03;;;2.90;;
5880;SDS011;2966;52.598;10.928;2023-02-03T08:30:46;2.90;;;2.70;;
5880;SDS011;2966;52.598;10.928;2023-02-03T08:33:14;4.33;;;4.00;;
5880;SDS011;2966;52.598;10.928;2023-02-03T08:39:06;3.23;;;2.33;;
5880;SDS011;2966;52.598;10.928;2023-02-03T08:41:34;3.20;;;2.90;;
5880;SDS011;2966;52.598;10.928;2023-02-03T08:44:01;3.70;;;3.30;;
5880;SDS011;2966;52.598;10.928;2023-02-03T08:46:28;4.00;;;3.67;;
5880;SDS011;2966;52.598;10.928;2023-02-03T08:48:59;2.80;;;2.60;;
5880;SDS011;2966;52.598;10.928;2023-02-03T08:51:27;4.73;;;4.10;;
5880;SDS011;2966;52.598;10.928;2023-02-03T08:53:54;9.90;;;5.00;;
5880;SDS011;2966;52.598;10.928;2023-02-03T08:56:21;5.97;;;5.20;;
5880;SDS011;2966;52.598;10.928;2023-02-03T08:58:53;2.43;;;2.23;;
5880;SDS011;2966;52.598;10.928;2023-02-03T09:01:20;6.33;;;4.20;;
5880;SDS011;2966;52.598;10.928;2023-02-03T09:03:47;4.30;;;3.90;;
5880;SDS011;2966;52.598;10.928;2023-02-03T09:06:14;4.83;;;3.73;;
5880;SDS011;2966;52.598;10.928;2023-02-03T09:08:42;4.20;;;3.33;;
5880;SDS011;2966;52.598;10.928;2023-02-03T09:11:10;3.87;;;3.47;;
5880;SDS011;2966;52.598;10.928;2023-02-03T09:13:39;2.80;;;2.60;;
5880;SDS011;2966;52.598;10.928;2023-02-03T09:16:12;3.50;;;2.30;;
5880;SDS011;2966;52.598;10.928;2023-02-03T09:18:42;3.87;;;3.47;;
5880;SDS011;2966;52.598;10.928;2023-02-03T09:21:09;2.37;;;2.17;;
5880;SDS011;2966;52.598;10.928;2023-02-03T09:23:37;6.23;;;3.47;;
5880;SDS011;2966;52.598;10.928;2023-02-03T09:26:06;2.80;;;2.37;;
5880;SDS011;2966;52.598;10.928;2023-02-03T09:28:34;3.40;;;3.20;;
5880;SDS011;2966;52.598;10.928;2023-02-03T09:31:03;2.60;;;2.43;;
5880;SDS011;2966;52.598;10.928;2023-02-03T09:33:33;3.37;;;2.73;;
5880;SDS011;2966;52.598;10.928;2023-02-03T09:36:03;2.00;;;1.90;;
5880;SDS011;2966;52.598;10.928;2023-02-03T09:38:31;2.67;;;2.47;;
5880;SDS011;2966;52.598;10.928;2023-02-03T09:41:00;4.07;;;3.73;;
5880;SDS011;2966;52.598;10.928;2023-02-03T09:43:32;0.90;;;0.80;;
5880;SDS011;2966;52.598;10.928;2023-02-03T09:46:04;3.37;;;2.33;;
5880;SDS011;2966;52.598;10.928;2023-02-03T09:48:37;4.63;;;1.37;;
5880;SDS011;2966;52.598;10.928;2023-02-03T09:51:12;2.70;;;1.57;;
5880;SDS011;2966;52.598;10.928;2023-02-03T09:53:47;2.73;;;2.03;;
5880;SDS011;2966;52.598;10.928;2023-02-03T09:56:22;2.60;;;2.33;;
5880;SDS011;2966;52.598;10.928;2023-02-03T09:58:54;2.57;;;2.37;;
5880;SDS011;2966;52.598;10.928;2023-02-03T10:01:21;1.07;;;1.07;;
5880;SDS011;2966;52.598;10.928;2023-02-03T10:03:53;0.80;;;0.73;;
5880;SDS011;2966;52.598;10.928;2023-02-03T10:06:28;0.80;;;0.80;;
5880;SDS011;2966;52.598;10.928;2023-02-03T10:15:02;0.73;;;0.73;;
5880;SDS011;2966;52.598;10.928;2023-02-03T10:17:40;0.30;;;0.20;;
5880;SDS011;2966;52.598;10.928;2023-02-03T10:20:13;0.30;;;0.20;;
5880;SDS011;2966;52.598;10.928;2023-02-03T10:22:46;0.30;;;0.20;;
5880;SDS011;2966;52.598;10.928;2023-02-03T10:25:16;0.30;;;0.20;;
5880;SDS011;2966;52.598;10.928;2023-02-03T10:27:48;0.30;;;0.20;;
5880;SDS011;2966;52.598;10.928;2023-02-03T10:30:18;0.30;;;0.20;;
5880;SDS011;2966;52.598;10.928;2023-02-03T10:32:48;0.30;;;0.20;;
5880;SDS011;2966;52.598;10.928;2023-02-03T10:35:18;0.30;;;0.20;;
5880;SDS011;2966;52.598;10.928;2023-02-03T10:37:47;0.30;;;0.20;;
5880;SDS011;2966;52.598;10.928;2023-02-03T10:40:15;0.30;;;0.20;;
5880;SDS011;2966;52.598;10.928;2023-02-03T10:42:43;0.30;;;0.20;;
5880;SDS011;2966;52.598;10.928;2023-02-03T10:45:31;0.30;;;0.20;;
5880;SDS011;2966;52.598;10.928;2023-02-03T10:48:01;0.30;;;0.20;;
5880;SDS011;2966;52.598;10.928;2023-02-03T10:50:30;0.30;;;0.20;;
5880;SDS011;2966;52.598;10.928;2023-02-03T10:53:17;0.30;;;0.20;;
5880;SDS011;2966;52.598;10.928;2023-02-03T10:55:46;0.30;;;0.20;;
5880;SDS011;2966;52.598;10.928;2023-02-03T10:58:16;0.30;;;0.20;;
5880;SDS011;2966;52.598;10.928;2023-02-03T11:00:53;0.30;;;0.20;;
5880;SDS011;2966;52.598;10.928;2023-02-03T11:03:22;7.47;;;2.20;;
5880;SDS011;2966;52.598;10.928;2023-02-03T11:06:11;0.70;;;0.40;;
5880;SDS011;2966;52.598;10.928;2023-02-03T11:08:40;3.80;;;0.97;;
5880;SDS011;2966;52.598;10.928;2023-02-03T11:11:08;2.07;;;1.97;;
5880;SDS011;2966;52.598;10.928;2023-02-03T11:13:39;1.47;;;1.17;;
5880;SDS011;2966;52.598;10.928;2023-02-03T11:16:06;0.40;;;0.30;;
5880;SDS011;2966;52.598;10.928;2023-02-03T11:18:40;2.20;;;1.60;;
5880;SDS011;2966;52.598;10.928;2023-02-03T11:21:22;0.30;;;0.30;;
5880;SDS011;2966;52.598;10.928;2023-02-03T11:23:52;2.20;;;0.93;;
5880;SDS011;2966;52.598;10.928;2023-02-03T11:26:22;1.00;;;0.83;;
5880;SDS011;2966;52.598;10.928;2023-02-03T11:28:53;6.80;;;1.63;;
5880;SDS011;2966;52.598;10.928;2023-02-03T11:31:24;21.10;;;3.03;;
5880;SDS011;2966;52.598;10.928;2023-02-03T11:33:53;22.87;;;1.77;;
5880;SDS011;2966;52.598;10.928;2023-02-03T11:36:27;3.43;;;1.03;;
5880;SDS011;2966;52.598;10.928;2023-02-03T11:39:08;4.53;;;2.27;;
5880;SDS011;2966;52.598;10.928;2023-02-03T11:41:38;4.47;;;0.67;;
5880;SDS011;2966;52.598;10.928;2023-02-03T11:44:09;2.50;;;2.40;;
5880;SDS011;2966;52.598;10.928;2023-02-03T11:46:37;4.63;;;2.50;;
5880;SDS011;2966;52.598;10.928;2023-02-03T11:49:10;7.83;;;3.83;;
5880;SDS011;2966;52.598;10.928;2023-02-03T11:51:49;5.50;;;2.20;;
5880;SDS011;2966;52.598;10.928;2023-02-03T11:54:23;8.97;;;4.43;;
5880;SDS011;2966;52.598;10.928;2023-02-03T11:57:06;10.10;;;0.77;;
5880;SDS011;2966;52.598;10.928;2023-02-03T11:59:45;6.03;;;1.67;;
5880;SDS011;2966;52.598;10.928;2023-02-03T12:08:56;11.93;;;1.70;;
5880;SDS011;2966;52.598;10.928;2023-02-03T12:11:36;2.47;;;1.53;;
5880;SDS011;2966;52.598;10.928;2023-02-03T12:14:14;5.63;;;1.70;;
5880;SDS011;2966;52.598;10.928;2023-02-03T12:17:06;0.70;;;0.30;;
5880;SDS011;2966;52.598;10.928;2023-02-03T12:20:00;4.60;;;1.43;;
5880;SDS011;2966;52.598;10.928;2023-02-03T12:22:34;0.40;;;0.20;;
5880;SDS011;2966;52.598;10.928;2023-02-03T12:25:15;9.63;;;2.00;;
5880;SDS011;2966;52.598;10.928;2023-02-03T12:28:02;4.10;;;1.60;;
5880;SDS011;2966;52.598;10.928;2023-02-03T12:30:40;6.37;;;2.13;;
5880;SDS011;2966;52.598;10.928;2023-02-03T12:33:15;5.93;;;2.80;;
5880;SDS011;2966;52.598;10.928;2023-02-03T12:35:46;3.60;;;2.20;;
5880;SDS011;2966;52.598;10.928;2023-02-03T12:38:18;0.30;;;0.30;;
5880;SDS011;2966;52.598;10.928;2023-02-03T12:40:56;5.80;;;1.43;;
5880;SDS011;2966;52.598;10.928;2023-02-03T12:43:29;3.33;;;1.60;;
5880;SDS011;2966;52.598;10.928;2023-02-03T12:46:02;0.60;;;0.60;;
5880;SDS011;2966;52.598;10.928;2023-02-03T12:48:34;6.80;;;3.03;;
5880;SDS011;2966;52.598;10.928;2023-02-03T12:51:11;6.07;;;1.50;;
5880;SDS011;2966;52.598;10.928;2023-02-03T12:53:43;0.90;;;0.90;;
5880;SDS011;2966;52.598;10.928;2023-02-03T12:56:17;1.00;;;0.87;;
5880;SDS011;2966;52.598;10.928;2023-02-03T12:58:51;1.87;;;1.10;;
5880;SDS011;2966;52.598;10.928;2023-02-03T13:01:25;1.87;;;1.57;;
5880;SDS011;2966;52.598;10.928;2023-02-03T13:03:59;0.63;;;0.63;;
5880;SDS011;2966;52.598;10.928;2023-02-03T13:06:33;16.23;;;2.00;;
5880;SDS011;2966;52.598;10.928;2023-02-03T13:09:11;2.30;;;1.20;;
5880;SDS011;2966;52.598;10.928;2023-02-03T13:11:52;5.30;;;2.10;;
5880;SDS011;2966;52.598;10.928;2023-02-03T13:14:26;0.80;;;0.67;;
5880;SDS011;2966;52.598;10.928;2023-02-03T13:16:58;12.93;;;1.80;;
5880;SDS011;2966;52.598;10.928;2023-02-03T13:19:33;2.87;;;0.93;;
5880;SDS011;2966;52.598;10.928;2023-02-03T13:22:09;2.97;;;0.83;;
5880;SDS011;2966;52.598;10.928;2023-02-03T13:24:37;13.03;;;3.87;;
5880;SDS011;2966;52.598;10.928;2023-02-03T13:27:16;3.33;;;3.03;;
5880;SDS011;2966;52.598;10.928;2023-02-03T13:29:57;5.70;;;3.37;;
5880;SDS011;2966;52.598;10.928;2023-02-03T13:32:41;2.00;;;1.33;;
5880;SDS011;2966;52.598;10.928;2023-02-03T13:35:26;1.53;;;0.93;;
5880;SDS011;2966;52.598;10.928;2023-02-03T13:38:08;0.40;;;0.40;;
5880;SDS011;2966;52.598;10.928;2023-02-03T13:40:50;13.03;;;1.60;;
5880;SDS011;2966;52.598;10.928;2023-02-03T13:43:28;2.87;;;1.00;;
5880;SDS011;2966;52.598;10.928;2023-02-03T13:45:59;1.23;;;0.90;;
5880;SDS011;2966;52.598;10.928;2023-02-03T13:48:27;5.00;;;0.90;;
5880;SDS011;2966;52.598;10.928;2023-02-03T13:51:04;0.60;;;0.50;;
5880;SDS011;2966;52.598;10.928;2023-02-03T13:53:38;3.50;;;1.33;;
5880;SDS011;2966;52.598;10.928;2023-02-03T13:56:08;8.83;;;1.37;;
5880;SDS011;2966;52.598;10.928;2023-02-03T13:58:47;1.23;;;1.13;;
5880;SDS011;2966;52.598;10.928;2023-02-03T14:01:29;6.57;;;0.77;;
5880;SDS011;2966;52.598;10.928;2023-02-03T14:03:58;0.40;;;0.37;;
5880;SDS011;2966;52.598;10.928;2023-02-03T14:09:36;3.20;;;1.97;;
5880;SDS011;2966;52.598;10.928;2023-02-03T14:15:26;5.27;;;1.17;;
5880;SDS011;2966;52.598;10.928;2023-02-03T14:17:57;12.50;;;2.70;;
5880;SDS011;2966;52.598;10.928;2023-02-03T14:23:24;5.50;;;1.83;;
5880;SDS011;2966;52.598;10.928;2023-02-03T14:25:55;0.50;;;0.50;;
5880;SDS011;2966;52.598;10.928;2023-02-03T14:28:25;1.03;;;0.93;;
5880;SDS011;2966;52.598;10.928;2023-02-03T14:31:05;0.53;;;0.40;;
5880;SDS011;2966;52.598;10.928;2023-02-03T14:33:56;1.23;;;0.50;;
5880;SDS011;2966;52.598;10.928;2023-02-03T14:36:34;1.20;;;0.40;;
5880;SDS011;2966;52.598;10.928;2023-02-03T14:41:55;1.90;;;1.00;;
5880;SDS011;2966;52.598;10.928;2023-02-03T14:44:30;3.47;;;0.77;;
5880;SDS011;2966;52.598;10.928;2023-02-03T14:47:15;6.53;;;1.60;;
5880;SDS011;2966;52.598;10.928;2023-02-03T14:49:57;1.03;;;0.87;;
5880;SDS011;2966;52.598;10.928;2023-02-03T14:52:53;2.13;;;1.00;;
5880;SDS011;2966;52.598;10.928;2023-02-03T14:55:48;4.37;;;0.87;;
5880;SDS011;2966;52.598;10.928;2023-02-03T14:58:26;8.73;;;0.97;;
5880;SDS011;2966;52.598;10.928;2023-02-03T15:00:55;4.67;;;1.30;;
5880;SDS011;2966;52.598;10.928;2023-02-03T15:03:24;6.83;;;1.63;;
5880;SDS011;2966;52.598;10.928;2023-02-03T15:05:55;2.63;;;1.03;;
5880;SDS011;2966;52.598;10.928;2023-02-03T15:08:29;0.30;;;0.30;;
5880;SDS011;2966;52.598;10.928;2023-02-03T15:11:26;12.47;;;1.33;;
5880;SDS011;2966;52.598;10.928;2023-02-03T15:13:55;3.80;;;1.10;;
5880;SDS011;2966;52.598;10.928;2023-02-03T15:16:39;5.20;;;1.07;;
5880;SDS011;2966;52.598;10.928;2023-02-03T15:19:14;1.13;;;0.97;;
5880;SDS011;2966;52.598;10.928;2023-02-03T15:21:42;2.87;;;2.63;;
5880;SDS011;2966;52.598;10.928;2023-02-03T15:24:12;0.30;;;0.20;;
5880;SDS011;2966;52.598;10.928;2023-02-03T15:26:46;7.87;;;1.33;;
5880;SDS011;2966;52.598;10.928;2023-02-03T15:29:18;14.60;;;3.77;;
5880;SDS011;2966;52.598;10.928;2023-02-03T15:31:49;7.60;;;2.50;;
5880;SDS011;2966;52.598;10.928;2023-02-03T15:34:23;0.57;;;0.57;;
5880;SDS011;2966;52.598;10.928;2023-02-03T15:36:54;2.67;;;1.43;;
5880;SDS011;2966;52.598;10.928;2023-02-03T15:39:32;2.93;;;1.93;;
5880;SDS011;2966;52.598;10.928;2023-02-03T15:42:16;0.30;;;0.20;;
5880;SDS011;2966;52.598;10.928;2023-02-03T15:44:52;8.90;;;1.43;;
5880;SDS011;2966;52.598;10.928;2023-02-03T15:47:24;4.63;;;2.10;;
5880;SDS011;2966;52.598;10.928;2023-02-03T15:50:01;15.27;;;3.63;;
5880;SDS011;2966;52.598;10.928;2023-02-03T15:52:43;0.73;;;0.73;;
5880;SDS011;2966;52.598;10.928;2023-02-03T15:55:16;5.50;;;1.90;;
5880;SDS011;2966;52.598;10.928;2023-02-03T15:57:46;0.30;;;0.20;;